RYR798V EDDG-LEPA
Flight info
| Callsign | RYR798V |
|---|---|
| Flight time | 2h 1m |
| Altitude | 37000 |
| Route | DOMEG1W DOMEG Z841 GMH Q603 TESGA L603 BOMBI DCT GIGET DCT ABUKA DCT KRH DCT NATOR DCT LUTIX DCT BENOT DCT NEMOS DCT GEVEA DCT INCUS DCT BALSI DCT RETNO DCT TUPOX DCT MTG DCT DIVKO DCT VATIR N852 VERSO L129 LUNIK |
| Aircraft | B738/M-SDE2E3FGHIRWXY/LB1 |
Departure
| Time | 2026-04-10 07:21 |
|---|---|
| Airport | Münster Osnabrück Airport (EDDG) |
Arrival
| Time | 2026-04-10 09:23 |
|---|---|
| Airport | Palma de Mallorca Airport (LEPA) |
| Time | Latitude | Longitude | Altitude | Speed | Heading |
|---|---|---|---|---|---|
| 2026-04-10 06:59 | 52.13130 | 7.69207 | 167 ft | 0 kts | 198° |
| 2026-04-10 07:15 | 52.13129 | 7.69206 | 167 ft | 0 kts | 203° |
| 2026-04-10 07:16 | 52.13133 | 7.69193 | 167 ft | 2 kts | 318° |
| 2026-04-10 07:16 | 52.13158 | 7.69177 | 167 ft | 5 kts | 351° |
| 2026-04-10 07:16 | 52.13192 | 7.69198 | 167 ft | 7 kts | 46° |
| 2026-04-10 07:16 | 52.13215 | 7.69272 | 167 ft | 7 kts | 71° |
| 2026-04-10 07:17 | 52.13251 | 7.69317 | 167 ft | 8 kts | 358° |
| 2026-04-10 07:17 | 52.13311 | 7.69288 | 167 ft | 8 kts | 342° |
| 2026-04-10 07:17 | 52.13367 | 7.69258 | 167 ft | 8 kts | 342° |
| 2026-04-10 07:17 | 52.13425 | 7.69236 | 167 ft | 8 kts | 11° |
| 2026-04-10 07:18 | 52.13464 | 7.69314 | 167 ft | 9 kts | 71° |
| 2026-04-10 07:18 | 52.13486 | 7.69419 | 167 ft | 9 kts | 71° |
| 2026-04-10 07:18 | 52.13509 | 7.69528 | 167 ft | 10 kts | 71° |
| 2026-04-10 07:18 | 52.13533 | 7.69643 | 167 ft | 12 kts | 71° |
| 2026-04-10 07:19 | 52.13566 | 7.69796 | 167 ft | 14 kts | 71° |
| 2026-04-10 07:19 | 52.13596 | 7.69939 | 166 ft | 10 kts | 68° |
| 2026-04-10 07:19 | 52.13643 | 7.70020 | 166 ft | 9 kts | 24° |
| 2026-04-10 07:19 | 52.13702 | 7.70029 | 166 ft | 8 kts | 349° |
| 2026-04-10 07:20 | 52.13754 | 7.70002 | 167 ft | 6 kts | 341° |
| 2026-04-10 07:20 | 52.13774 | 7.69977 | 166 ft | 3 kts | 291° |
| 2026-04-10 07:20 | 52.13773 | 7.69948 | 166 ft | 0 kts | 253° |
| 2026-04-10 07:21 | 52.13689 | 7.69548 | 167 ft | 76 kts | 251° |
| 2026-04-10 07:21 | 52.13437 | 7.68354 | 167 ft | 143 kts | 251° |
| 2026-04-10 07:21 | 52.13077 | 7.66689 | 589 ft | 162 kts | 251° |
| 2026-04-10 07:21 | 52.12719 | 7.64966 | 1357 ft | 165 kts | 254° |
| 2026-04-10 07:22 | 52.12362 | 7.63129 | 1942 ft | 173 kts | 253° |
| 2026-04-10 07:22 | 52.11976 | 7.61283 | 2339 ft | 180 kts | 252° |
| 2026-04-10 07:22 | 52.11536 | 7.59230 | 2582 ft | 198 kts | 252° |
| 2026-04-10 07:22 | 52.11078 | 7.57110 | 3021 ft | 207 kts | 252° |
| 2026-04-10 07:23 | 52.10476 | 7.54887 | 3324 ft | 223 kts | 238° |
| 2026-04-10 07:23 | 52.09401 | 7.52991 | 3684 ft | 238 kts | 214° |
| 2026-04-10 07:23 | 52.07811 | 7.52078 | 4058 ft | 250 kts | 188° |
| 2026-04-10 07:23 | 52.06038 | 7.51776 | 4407 ft | 262 kts | 185° |
| 2026-04-10 07:24 | 52.04216 | 7.51548 | 4892 ft | 267 kts | 185° |
| 2026-04-10 07:24 | 52.02347 | 7.51273 | 5489 ft | 269 kts | 186° |
| 2026-04-10 07:24 | 52.00492 | 7.51031 | 6061 ft | 272 kts | 181° |
| 2026-04-10 07:24 | 51.99220 | 7.51114 | 6448 ft | 273 kts | 174° |
| 2026-04-10 07:25 | 51.96716 | 7.51756 | 7204 ft | 277 kts | 169° |
| 2026-04-10 07:25 | 51.95455 | 7.52152 | 7582 ft | 280 kts | 169° |
| 2026-04-10 07:25 | 51.92879 | 7.52922 | 8368 ft | 284 kts | 170° |
| 2026-04-10 07:25 | 51.90931 | 7.53461 | 8972 ft | 287 kts | 171° |
| 2026-04-10 07:26 | 51.88963 | 7.53988 | 9614 ft | 293 kts | 173° |
| 2026-04-10 07:26 | 51.86975 | 7.54510 | 10286 ft | 297 kts | 175° |
| 2026-04-10 07:26 | 51.84831 | 7.55066 | 10702 ft | 312 kts | 176° |
| 2026-04-10 07:26 | 51.83385 | 7.55436 | 10983 ft | 322 kts | 177° |
| 2026-04-10 07:27 | 51.80345 | 7.56211 | 11432 ft | 341 kts | 178° |
| 2026-04-10 07:27 | 51.77974 | 7.56819 | 11694 ft | 357 kts | 177° |
| 2026-04-10 07:27 | 51.75459 | 7.57469 | 12148 ft | 366 kts | 177° |
| 2026-04-10 07:27 | 51.72936 | 7.58133 | 12698 ft | 372 kts | 176° |
| 2026-04-10 07:28 | 51.70399 | 7.58971 | 13392 ft | 377 kts | 171° |
| 2026-04-10 07:28 | 51.67864 | 7.60209 | 14088 ft | 382 kts | 167° |
| 2026-04-10 07:28 | 51.65369 | 7.61626 | 14769 ft | 386 kts | 165° |
| 2026-04-10 07:28 | 51.62819 | 7.63148 | 15387 ft | 391 kts | 165° |
| 2026-04-10 07:29 | 51.60288 | 7.64665 | 16025 ft | 395 kts | 165° |
| 2026-04-10 07:29 | 51.57671 | 7.66212 | 16619 ft | 400 kts | 165° |
| 2026-04-10 07:29 | 51.55067 | 7.67725 | 17289 ft | 402 kts | 165° |
| 2026-04-10 07:29 | 51.52436 | 7.69235 | 17853 ft | 406 kts | 166° |
| 2026-04-10 07:30 | 51.49761 | 7.70757 | 18407 ft | 411 kts | 166° |
| 2026-04-10 07:30 | 51.47927 | 7.71796 | 18805 ft | 413 kts | 166° |
| 2026-04-10 07:30 | 51.44283 | 7.73855 | 19499 ft | 420 kts | 166° |
| 2026-04-10 07:30 | 51.41532 | 7.75406 | 20048 ft | 424 kts | 167° |
| 2026-04-10 07:31 | 51.38709 | 7.76995 | 20469 ft | 431 kts | 167° |
| 2026-04-10 07:31 | 51.35883 | 7.78585 | 20967 ft | 435 kts | 167° |
| 2026-04-10 07:31 | 51.33013 | 7.80200 | 21445 ft | 439 kts | 167° |
| 2026-04-10 07:31 | 51.30123 | 7.81820 | 21899 ft | 443 kts | 167° |
| 2026-04-10 07:32 | 51.28182 | 7.82910 | 22220 ft | 445 kts | 167° |
| 2026-04-10 07:32 | 51.25275 | 7.84550 | 22668 ft | 449 kts | 168° |
| 2026-04-10 07:32 | 51.21343 | 7.86760 | 23230 ft | 455 kts | 168° |
| 2026-04-10 07:32 | 51.18346 | 7.88617 | 23656 ft | 462 kts | 163° |
| 2026-04-10 07:33 | 51.16390 | 7.90066 | 23922 ft | 468 kts | 160° |
| 2026-04-10 07:33 | 51.12600 | 7.93405 | 24502 ft | 476 kts | 155° |
| 2026-04-10 07:33 | 51.09754 | 7.96201 | 24846 ft | 483 kts | 153° |
| 2026-04-10 07:33 | 51.06916 | 7.99107 | 25182 ft | 489 kts | 153° |
| 2026-04-10 07:34 | 51.05027 | 8.01073 | 25480 ft | 491 kts | 152° |
| 2026-04-10 07:34 | 51.01195 | 8.05075 | 25995 ft | 496 kts | 153° |
| 2026-04-10 07:34 | 50.98335 | 8.08044 | 26431 ft | 499 kts | 153° |
| 2026-04-10 07:34 | 50.95401 | 8.11065 | 26871 ft | 501 kts | 153° |
| 2026-04-10 07:35 | 50.92488 | 8.14040 | 27143 ft | 506 kts | 153° |
| 2026-04-10 07:35 | 50.89504 | 8.17066 | 27532 ft | 509 kts | 153° |
| 2026-04-10 07:35 | 50.86526 | 8.20075 | 27993 ft | 511 kts | 154° |
| 2026-04-10 07:35 | 50.83488 | 8.23128 | 28320 ft | 515 kts | 153° |
| 2026-04-10 07:36 | 50.80482 | 8.26144 | 28888 ft | 513 kts | 153° |
| 2026-04-10 07:36 | 50.78476 | 8.28157 | 29317 ft | 511 kts | 154° |
| 2026-04-10 07:36 | 50.74474 | 8.32163 | 29967 ft | 511 kts | 153° |
| 2026-04-10 07:36 | 50.71457 | 8.35171 | 30332 ft | 513 kts | 153° |
| 2026-04-10 07:37 | 50.68430 | 8.38184 | 30676 ft | 515 kts | 154° |
| 2026-04-10 07:37 | 50.65356 | 8.41239 | 31267 ft | 511 kts | 153° |
| 2026-04-10 07:37 | 50.62377 | 8.44199 | 31790 ft | 508 kts | 153° |
| 2026-04-10 07:37 | 50.59410 | 8.47142 | 32243 ft | 507 kts | 153° |
| 2026-04-10 07:38 | 50.56411 | 8.50112 | 32664 ft | 506 kts | 153° |
| 2026-04-10 07:38 | 50.53449 | 8.53038 | 33102 ft | 505 kts | 153° |
| 2026-04-10 07:38 | 50.50486 | 8.55964 | 33617 ft | 501 kts | 153° |
| 2026-04-10 07:38 | 50.47539 | 8.58801 | 34129 ft | 495 kts | 154° |
| 2026-04-10 07:39 | 50.44555 | 8.61365 | 34549 ft | 489 kts | 160° |
| 2026-04-10 07:39 | 50.41461 | 8.63496 | 34828 ft | 486 kts | 165° |
| 2026-04-10 07:39 | 50.38286 | 8.65256 | 35064 ft | 483 kts | 169° |
| 2026-04-10 07:39 | 50.35068 | 8.66804 | 35305 ft | 481 kts | 171° |
| 2026-04-10 07:40 | 50.31840 | 8.68251 | 35619 ft | 478 kts | 172° |
| 2026-04-10 07:40 | 50.28650 | 8.69648 | 35782 ft | 480 kts | 172° |
| 2026-04-10 07:40 | 50.25453 | 8.71047 | 35951 ft | 481 kts | 172° |
| 2026-04-10 07:40 | 50.22226 | 8.72472 | 36098 ft | 483 kts | 171° |
| 2026-04-10 07:41 | 50.15814 | 8.75357 | 36113 ft | 479 kts | 171° |
| 2026-04-10 07:41 | 50.09430 | 8.78215 | 36112 ft | 476 kts | 173° |
| 2026-04-10 07:42 | 50.02913 | 8.79760 | 36110 ft | 466 kts | 186° |
| 2026-04-10 07:42 | 49.96550 | 8.79261 | 36111 ft | 457 kts | 197° |
| 2026-04-10 07:43 | 49.90341 | 8.77656 | 36107 ft | 452 kts | 199° |
| 2026-04-10 07:43 | 49.84171 | 8.75995 | 36103 ft | 452 kts | 198° |
| 2026-04-10 07:44 | 49.77951 | 8.74461 | 36105 ft | 456 kts | 198° |
| 2026-04-10 07:44 | 49.71694 | 8.73052 | 36101 ft | 456 kts | 197° |
| 2026-04-10 07:45 | 49.65384 | 8.71714 | 36112 ft | 460 kts | 197° |
| 2026-04-10 07:45 | 49.59071 | 8.70434 | 36109 ft | 455 kts | 197° |
| 2026-04-10 07:46 | 49.52771 | 8.69170 | 36105 ft | 458 kts | 196° |
| 2026-04-10 07:46 | 49.46437 | 8.67896 | 36109 ft | 462 kts | 197° |
| 2026-04-10 07:47 | 49.40096 | 8.66622 | 36110 ft | 458 kts | 196° |
| 2026-04-10 07:47 | 49.33780 | 8.65346 | 36112 ft | 459 kts | 197° |
| 2026-04-10 07:48 | 49.27466 | 8.64075 | 36109 ft | 460 kts | 196° |
| 2026-04-10 07:48 | 49.21112 | 8.62790 | 36109 ft | 461 kts | 196° |
| 2026-04-10 07:49 | 49.14743 | 8.61504 | 36108 ft | 462 kts | 196° |
| 2026-04-10 07:49 | 49.08399 | 8.60233 | 36107 ft | 463 kts | 196° |
| 2026-04-10 07:50 | 49.02017 | 8.58962 | 36105 ft | 459 kts | 196° |
| 2026-04-10 07:50 | 48.95636 | 8.57535 | 36101 ft | 461 kts | 199° |
| 2026-04-10 07:51 | 48.89358 | 8.55520 | 36086 ft | 459 kts | 201° |
| 2026-04-10 07:51 | 48.83134 | 8.53386 | 36083 ft | 459 kts | 201° |
| 2026-04-10 07:52 | 48.76928 | 8.51285 | 36076 ft | 459 kts | 201° |
| 2026-04-10 07:52 | 48.70667 | 8.49213 | 36099 ft | 461 kts | 201° |
| 2026-04-10 07:53 | 48.67551 | 8.48194 | 36284 ft | 462 kts | 201° |
| 2026-04-10 07:53 | 48.64412 | 8.47178 | 36589 ft | 459 kts | 201° |
| 2026-04-10 07:53 | 48.61292 | 8.46175 | 36861 ft | 457 kts | 201° |
| 2026-04-10 07:53 | 48.58197 | 8.45182 | 37055 ft | 458 kts | 201° |
| 2026-04-10 07:54 | 48.51961 | 8.43184 | 37078 ft | 461 kts | 201° |
| 2026-04-10 07:54 | 48.45689 | 8.41185 | 37079 ft | 460 kts | 200° |
| 2026-04-10 07:55 | 48.39451 | 8.39207 | 37084 ft | 462 kts | 200° |
| 2026-04-10 07:55 | 48.33161 | 8.37218 | 37081 ft | 460 kts | 200° |
| 2026-04-10 07:56 | 48.26890 | 8.35243 | 37090 ft | 462 kts | 200° |
| 2026-04-10 07:56 | 48.20603 | 8.33211 | 37096 ft | 463 kts | 201° |
| 2026-04-10 07:57 | 48.14669 | 8.29947 | 37100 ft | 444 kts | 216° |
| 2026-04-10 07:57 | 48.09380 | 8.25234 | 37100 ft | 442 kts | 221° |
| 2026-04-10 07:58 | 48.04283 | 8.20189 | 37109 ft | 439 kts | 222° |
| 2026-04-10 07:58 | 47.99221 | 8.15166 | 37104 ft | 441 kts | 222° |
| 2026-04-10 07:59 | 47.94099 | 8.10159 | 37114 ft | 438 kts | 221° |
| 2026-04-10 07:59 | 47.88963 | 8.05202 | 37118 ft | 441 kts | 221° |
| 2026-04-10 08:00 | 47.83817 | 8.00276 | 37115 ft | 440 kts | 221° |
| 2026-04-10 08:00 | 47.79523 | 7.96184 | 37119 ft | 441 kts | 221° |
| 2026-04-10 08:01 | 47.73514 | 7.90470 | 37111 ft | 441 kts | 221° |
| 2026-04-10 08:01 | 47.68328 | 7.85561 | 37115 ft | 441 kts | 221° |
| 2026-04-10 08:02 | 47.63142 | 7.80658 | 37111 ft | 442 kts | 221° |
| 2026-04-10 08:02 | 47.57980 | 7.75732 | 37107 ft | 440 kts | 224° |
| 2026-04-10 08:03 | 47.53293 | 7.70061 | 37108 ft | 433 kts | 231° |
| 2026-04-10 08:03 | 47.48866 | 7.64043 | 37098 ft | 432 kts | 231° |
| 2026-04-10 08:04 | 47.44422 | 7.58075 | 37104 ft | 433 kts | 231° |
| 2026-04-10 08:05 | 47.37632 | 7.49215 | 37101 ft | 435 kts | 230° |
| 2026-04-10 08:05 | 47.33067 | 7.43358 | 37100 ft | 436 kts | 230° |
| 2026-04-10 08:06 | 47.28483 | 7.37520 | 37090 ft | 435 kts | 230° |
| 2026-04-10 08:06 | 47.23893 | 7.31694 | 37094 ft | 438 kts | 229° |
| 2026-04-10 08:07 | 47.19287 | 7.25865 | 37085 ft | 440 kts | 229° |
| 2026-04-10 08:07 | 47.14646 | 7.20022 | 37084 ft | 437 kts | 229° |
| 2026-04-10 08:08 | 47.10011 | 7.14197 | 37099 ft | 440 kts | 229° |
| 2026-04-10 08:08 | 47.05380 | 7.08383 | 37100 ft | 438 kts | 229° |
| 2026-04-10 08:09 | 47.00784 | 7.02634 | 37104 ft | 436 kts | 229° |
| 2026-04-10 08:09 | 46.96149 | 6.96840 | 37105 ft | 440 kts | 229° |
| 2026-04-10 08:10 | 46.91503 | 6.91054 | 37109 ft | 435 kts | 229° |
| 2026-04-10 08:10 | 46.86825 | 6.85349 | 37115 ft | 441 kts | 228° |
| 2026-04-10 08:11 | 46.82080 | 6.79711 | 37114 ft | 442 kts | 227° |
| 2026-04-10 08:11 | 46.77287 | 6.74050 | 37115 ft | 441 kts | 227° |
| 2026-04-10 08:12 | 46.72537 | 6.68438 | 37113 ft | 442 kts | 227° |
| 2026-04-10 08:12 | 46.68562 | 6.63746 | 37125 ft | 442 kts | 227° |
| 2026-04-10 08:13 | 46.62982 | 6.57172 | 37127 ft | 440 kts | 227° |
| 2026-04-10 08:13 | 46.58195 | 6.51540 | 37127 ft | 443 kts | 227° |
| 2026-04-10 08:14 | 46.53421 | 6.45935 | 37129 ft | 441 kts | 227° |
| 2026-04-10 08:14 | 46.48641 | 6.40327 | 37127 ft | 442 kts | 227° |
| 2026-04-10 08:15 | 46.43881 | 6.34752 | 37265 ft | 445 kts | 226° |
| 2026-04-10 08:15 | 46.41463 | 6.31930 | 37130 ft | 439 kts | 226° |
| 2026-04-10 08:15 | 46.39072 | 6.29147 | 37135 ft | 439 kts | 226° |
| 2026-04-10 08:16 | 46.34296 | 6.23580 | 37128 ft | 443 kts | 226° |
| 2026-04-10 08:16 | 46.30305 | 6.18943 | 37124 ft | 442 kts | 226° |
| 2026-04-10 08:17 | 46.24224 | 6.13278 | 37118 ft | 458 kts | 206° |
| 2026-04-10 08:17 | 46.17953 | 6.11126 | 37121 ft | 470 kts | 194° |
| 2026-04-10 08:18 | 46.11435 | 6.09766 | 37116 ft | 470 kts | 192° |
| 2026-04-10 08:18 | 46.04956 | 6.08513 | 37115 ft | 471 kts | 193° |
| 2026-04-10 08:19 | 45.98463 | 6.07187 | 37113 ft | 469 kts | 193° |
| 2026-04-10 08:19 | 45.92034 | 6.05817 | 37113 ft | 470 kts | 193° |
| 2026-04-10 08:20 | 45.85646 | 6.04426 | 37113 ft | 469 kts | 193° |
| 2026-04-10 08:20 | 45.79181 | 6.03002 | 37119 ft | 471 kts | 193° |
| 2026-04-10 08:21 | 45.72702 | 6.01570 | 37114 ft | 469 kts | 193° |
| 2026-04-10 08:21 | 45.66237 | 6.00145 | 37115 ft | 469 kts | 193° |
| 2026-04-10 08:22 | 45.59783 | 5.98728 | 37108 ft | 468 kts | 193° |
| 2026-04-10 08:22 | 45.53327 | 5.97312 | 37114 ft | 468 kts | 193° |
| 2026-04-10 08:23 | 45.46909 | 5.95900 | 37122 ft | 470 kts | 194° |
| 2026-04-10 08:23 | 45.40501 | 5.94100 | 37142 ft | 464 kts | 197° |
| 2026-04-10 08:24 | 45.34173 | 5.92043 | 37163 ft | 466 kts | 198° |
| 2026-04-10 08:24 | 45.27862 | 5.89985 | 37165 ft | 466 kts | 197° |
| 2026-04-10 08:25 | 45.21523 | 5.87955 | 37169 ft | 466 kts | 197° |
| 2026-04-10 08:25 | 45.15216 | 5.85972 | 37163 ft | 464 kts | 197° |
| 2026-04-10 08:26 | 45.09983 | 5.84343 | 37162 ft | 464 kts | 197° |
| 2026-04-10 08:26 | 45.02639 | 5.82071 | 37163 ft | 463 kts | 197° |
| 2026-04-10 08:27 | 44.96335 | 5.80127 | 37148 ft | 465 kts | 196° |
| 2026-04-10 08:27 | 44.90022 | 5.78186 | 37146 ft | 463 kts | 196° |
| 2026-04-10 08:28 | 44.83802 | 5.76278 | 37123 ft | 465 kts | 196° |
| 2026-04-10 08:28 | 44.77438 | 5.74330 | 37120 ft | 464 kts | 196° |
| 2026-04-10 08:29 | 44.71127 | 5.72403 | 37109 ft | 463 kts | 196° |
| 2026-04-10 08:29 | 44.64787 | 5.70472 | 37108 ft | 465 kts | 196° |
| 2026-04-10 08:30 | 44.58486 | 5.68558 | 37093 ft | 465 kts | 196° |
| 2026-04-10 08:30 | 44.52147 | 5.66637 | 37098 ft | 464 kts | 196° |
| 2026-04-10 08:31 | 44.45849 | 5.64732 | 37104 ft | 466 kts | 196° |
| 2026-04-10 08:31 | 44.39509 | 5.62781 | 37081 ft | 464 kts | 198° |
| 2026-04-10 08:32 | 44.33383 | 5.60097 | 37084 ft | 460 kts | 205° |
| 2026-04-10 08:32 | 44.27406 | 5.56829 | 37070 ft | 459 kts | 206° |
| 2026-04-10 08:33 | 44.21515 | 5.53502 | 37081 ft | 460 kts | 206° |
| 2026-04-10 08:33 | 44.15602 | 5.50190 | 37056 ft | 461 kts | 206° |
| 2026-04-10 08:34 | 44.09590 | 5.46874 | 37067 ft | 460 kts | 205° |
| 2026-04-10 08:34 | 44.03612 | 5.43607 | 37059 ft | 461 kts | 205° |
| 2026-04-10 08:35 | 43.97657 | 5.40371 | 37053 ft | 461 kts | 205° |
| 2026-04-10 08:35 | 43.91709 | 5.37150 | 37046 ft | 461 kts | 205° |
| 2026-04-10 08:36 | 43.85923 | 5.34023 | 37035 ft | 460 kts | 204° |
| 2026-04-10 08:36 | 43.79977 | 5.30816 | 37028 ft | 459 kts | 204° |
| 2026-04-10 08:37 | 43.74007 | 5.27604 | 37019 ft | 458 kts | 204° |
| 2026-04-10 08:37 | 43.68075 | 5.24418 | 37022 ft | 457 kts | 204° |
| 2026-04-10 08:38 | 43.62133 | 5.21234 | 37030 ft | 456 kts | 204° |
| 2026-04-10 08:38 | 43.56238 | 5.18081 | 37028 ft | 457 kts | 204° |
| 2026-04-10 08:39 | 43.50305 | 5.14915 | 37031 ft | 457 kts | 204° |
| 2026-04-10 08:39 | 43.44349 | 5.11743 | 37026 ft | 457 kts | 204° |
| 2026-04-10 08:40 | 43.38530 | 5.08326 | 37027 ft | 452 kts | 211° |
| 2026-04-10 08:40 | 43.33194 | 5.03896 | 37028 ft | 450 kts | 217° |
| 2026-04-10 08:41 | 43.28062 | 4.99022 | 37024 ft | 448 kts | 219° |
| 2026-04-10 08:41 | 43.22979 | 4.94120 | 37026 ft | 449 kts | 218° |
| 2026-04-10 08:42 | 43.17827 | 4.89202 | 37028 ft | 449 kts | 218° |
| 2026-04-10 08:42 | 43.12698 | 4.84361 | 37028 ft | 449 kts | 218° |
| 2026-04-10 08:43 | 43.07551 | 4.79536 | 37038 ft | 449 kts | 218° |
| 2026-04-10 08:43 | 43.02310 | 4.74920 | 37039 ft | 448 kts | 213° |
| 2026-04-10 08:44 | 42.96842 | 4.70774 | 37034 ft | 450 kts | 211° |
| 2026-04-10 08:44 | 42.91308 | 4.66713 | 37043 ft | 450 kts | 211° |
| 2026-04-10 08:45 | 42.85854 | 4.62681 | 37045 ft | 448 kts | 212° |
| 2026-04-10 08:45 | 42.80390 | 4.58601 | 37062 ft | 447 kts | 212° |
| 2026-04-10 08:46 | 42.74951 | 4.54525 | 37062 ft | 446 kts | 212° |
| 2026-04-10 08:46 | 42.69519 | 4.50450 | 37061 ft | 446 kts | 212° |
| 2026-04-10 08:47 | 42.64117 | 4.46403 | 37061 ft | 444 kts | 212° |
| 2026-04-10 08:47 | 42.58709 | 4.42357 | 37062 ft | 444 kts | 212° |
| 2026-04-10 08:48 | 42.53308 | 4.38325 | 37063 ft | 443 kts | 212° |
| 2026-04-10 08:48 | 42.47913 | 4.34304 | 37060 ft | 442 kts | 212° |
| 2026-04-10 08:49 | 42.42527 | 4.30301 | 37063 ft | 441 kts | 212° |
| 2026-04-10 08:49 | 42.37152 | 4.26311 | 37063 ft | 441 kts | 212° |
| 2026-04-10 08:50 | 42.31792 | 4.22342 | 37061 ft | 441 kts | 212° |
| 2026-04-10 08:50 | 42.26436 | 4.18381 | 37061 ft | 439 kts | 212° |
| 2026-04-10 08:51 | 42.21086 | 4.14433 | 37065 ft | 439 kts | 212° |
| 2026-04-10 08:51 | 42.15707 | 4.10469 | 37066 ft | 440 kts | 212° |
| 2026-04-10 08:52 | 42.10339 | 4.06523 | 37066 ft | 440 kts | 212° |
| 2026-04-10 08:52 | 42.04982 | 4.02595 | 37071 ft | 438 kts | 212° |
| 2026-04-10 08:53 | 41.99645 | 3.98691 | 37070 ft | 436 kts | 212° |
| 2026-04-10 08:53 | 41.94276 | 3.94887 | 37072 ft | 437 kts | 208° |
| 2026-04-10 08:54 | 41.88502 | 3.92260 | 37074 ft | 443 kts | 196° |
| 2026-04-10 08:54 | 41.82439 | 3.90747 | 37073 ft | 445 kts | 192° |
| 2026-04-10 08:55 | 41.76308 | 3.89468 | 37074 ft | 445 kts | 192° |
| 2026-04-10 08:55 | 41.70179 | 3.88167 | 37071 ft | 444 kts | 192° |
| 2026-04-10 08:56 | 41.64104 | 3.86825 | 37076 ft | 444 kts | 193° |
| 2026-04-10 08:56 | 41.57990 | 3.85444 | 37080 ft | 442 kts | 193° |
| 2026-04-10 08:57 | 41.51913 | 3.84057 | 37078 ft | 441 kts | 193° |
| 2026-04-10 08:57 | 41.45866 | 3.82673 | 37078 ft | 441 kts | 193° |
| 2026-04-10 08:58 | 41.39832 | 3.81292 | 37085 ft | 440 kts | 193° |
| 2026-04-10 08:58 | 41.36807 | 3.80602 | 36951 ft | 438 kts | 193° |
| 2026-04-10 08:58 | 41.33810 | 3.79920 | 36582 ft | 431 kts | 193° |
| 2026-04-10 08:58 | 41.30876 | 3.79254 | 36095 ft | 428 kts | 193° |
| 2026-04-10 08:59 | 41.27984 | 3.78597 | 35663 ft | 422 kts | 193° |
| 2026-04-10 08:59 | 41.25063 | 3.77932 | 35183 ft | 425 kts | 193° |
| 2026-04-10 08:59 | 41.22132 | 3.77262 | 34685 ft | 429 kts | 193° |
| 2026-04-10 08:59 | 41.19190 | 3.76592 | 34175 ft | 426 kts | 194° |
| 2026-04-10 09:00 | 41.16303 | 3.75847 | 33685 ft | 420 kts | 198° |
| 2026-04-10 09:00 | 41.13528 | 3.74836 | 33206 ft | 414 kts | 202° |
| 2026-04-10 09:00 | 41.10813 | 3.73594 | 32712 ft | 408 kts | 205° |
| 2026-04-10 09:00 | 41.08180 | 3.72258 | 32222 ft | 404 kts | 206° |
| 2026-04-10 09:01 | 41.05575 | 3.70883 | 31737 ft | 400 kts | 207° |
| 2026-04-10 09:01 | 41.03024 | 3.69524 | 31260 ft | 397 kts | 207° |
| 2026-04-10 09:01 | 41.00456 | 3.68162 | 30775 ft | 393 kts | 207° |
| 2026-04-10 09:01 | 40.97941 | 3.66838 | 30311 ft | 390 kts | 207° |
| 2026-04-10 09:02 | 40.95429 | 3.65525 | 29843 ft | 386 kts | 207° |
| 2026-04-10 09:02 | 40.92950 | 3.64237 | 29384 ft | 383 kts | 207° |
| 2026-04-10 09:02 | 40.90490 | 3.62965 | 28917 ft | 381 kts | 207° |
| 2026-04-10 09:02 | 40.88026 | 3.61696 | 28451 ft | 378 kts | 206° |
| 2026-04-10 09:03 | 40.85598 | 3.60448 | 27995 ft | 375 kts | 206° |
| 2026-04-10 09:03 | 40.83163 | 3.59200 | 27534 ft | 372 kts | 206° |
| 2026-04-10 09:03 | 40.80775 | 3.57977 | 27079 ft | 369 kts | 206° |
| 2026-04-10 09:04 | 40.76051 | 3.55563 | 26178 ft | 363 kts | 206° |
| 2026-04-10 09:04 | 40.73688 | 3.54356 | 25727 ft | 360 kts | 206° |
| 2026-04-10 09:04 | 40.71371 | 3.53174 | 25282 ft | 357 kts | 206° |
| 2026-04-10 09:04 | 40.69080 | 3.52006 | 24842 ft | 354 kts | 206° |
| 2026-04-10 09:05 | 40.66788 | 3.50839 | 24399 ft | 351 kts | 205° |
| 2026-04-10 09:05 | 40.64515 | 3.49682 | 23961 ft | 348 kts | 205° |
| 2026-04-10 09:05 | 40.62280 | 3.48546 | 23533 ft | 345 kts | 205° |
| 2026-04-10 09:05 | 40.60067 | 3.47421 | 23109 ft | 343 kts | 205° |
| 2026-04-10 09:06 | 40.57849 | 3.46295 | 22674 ft | 340 kts | 205° |
| 2026-04-10 09:06 | 40.55663 | 3.45185 | 22250 ft | 337 kts | 205° |
| 2026-04-10 09:06 | 40.53460 | 3.44068 | 21819 ft | 335 kts | 204° |
| 2026-04-10 09:06 | 40.51304 | 3.42976 | 21406 ft | 333 kts | 204° |
| 2026-04-10 09:07 | 40.49165 | 3.41892 | 20986 ft | 331 kts | 204° |
| 2026-04-10 09:07 | 40.47015 | 3.40807 | 20576 ft | 333 kts | 204° |
| 2026-04-10 09:07 | 40.44796 | 3.39833 | 20149 ft | 338 kts | 198° |
| 2026-04-10 09:07 | 40.42479 | 3.39319 | 19737 ft | 338 kts | 186° |
| 2026-04-10 09:08 | 40.40149 | 3.39273 | 19323 ft | 336 kts | 181° |
| 2026-04-10 09:08 | 40.37817 | 3.39408 | 18909 ft | 335 kts | 179° |
| 2026-04-10 09:08 | 40.35509 | 3.39601 | 18502 ft | 333 kts | 178° |
| 2026-04-10 09:08 | 40.33193 | 3.39797 | 18075 ft | 331 kts | 178° |
| 2026-04-10 09:09 | 40.30921 | 3.39967 | 17664 ft | 329 kts | 179° |
| 2026-04-10 09:09 | 40.28655 | 3.40117 | 17271 ft | 327 kts | 179° |
| 2026-04-10 09:09 | 40.26379 | 3.40253 | 16862 ft | 325 kts | 179° |
| 2026-04-10 09:09 | 40.24139 | 3.40381 | 16452 ft | 323 kts | 179° |
| 2026-04-10 09:10 | 40.21899 | 3.40507 | 16058 ft | 321 kts | 179° |
| 2026-04-10 09:10 | 40.19670 | 3.40632 | 15655 ft | 320 kts | 179° |
| 2026-04-10 09:10 | 40.17463 | 3.40755 | 15251 ft | 318 kts | 179° |
| 2026-04-10 09:10 | 40.15255 | 3.40880 | 14856 ft | 316 kts | 179° |
| 2026-04-10 09:11 | 40.13080 | 3.41003 | 14475 ft | 314 kts | 180° |
| 2026-04-10 09:11 | 40.10897 | 3.41126 | 14091 ft | 313 kts | 180° |
| 2026-04-10 09:11 | 40.08749 | 3.41247 | 13704 ft | 311 kts | 180° |
| 2026-04-10 09:11 | 40.06589 | 3.41369 | 13316 ft | 310 kts | 180° |
| 2026-04-10 09:12 | 40.04419 | 3.41492 | 12931 ft | 309 kts | 180° |
| 2026-04-10 09:12 | 40.02293 | 3.41612 | 12518 ft | 309 kts | 180° |
| 2026-04-10 09:12 | 40.00135 | 3.41733 | 12134 ft | 309 kts | 180° |
| 2026-04-10 09:12 | 39.98010 | 3.41670 | 11645 ft | 307 kts | 195° |
| 2026-04-10 09:13 | 39.96119 | 3.40532 | 11231 ft | 298 kts | 222° |
| 2026-04-10 09:13 | 39.94635 | 3.38672 | 10829 ft | 293 kts | 231° |
| 2026-04-10 09:13 | 39.93286 | 3.36702 | 10469 ft | 291 kts | 231° |
| 2026-04-10 09:13 | 39.91915 | 3.34786 | 10104 ft | 290 kts | 229° |
| 2026-04-10 09:14 | 39.90502 | 3.32937 | 9735 ft | 289 kts | 227° |
| 2026-04-10 09:14 | 39.89055 | 3.31121 | 9335 ft | 287 kts | 226° |
| 2026-04-10 09:14 | 39.87610 | 3.29340 | 8965 ft | 286 kts | 226° |
| 2026-04-10 09:14 | 39.86166 | 3.27568 | 8609 ft | 284 kts | 226° |
| 2026-04-10 09:15 | 39.84741 | 3.25818 | 8237 ft | 283 kts | 225° |
| 2026-04-10 09:15 | 39.83318 | 3.24068 | 7865 ft | 281 kts | 225° |
| 2026-04-10 09:15 | 39.81904 | 3.22329 | 7512 ft | 279 kts | 225° |
| 2026-04-10 09:15 | 39.80497 | 3.20596 | 7133 ft | 279 kts | 225° |
| 2026-04-10 09:16 | 39.79095 | 3.18872 | 6779 ft | 278 kts | 225° |
| 2026-04-10 09:16 | 39.77697 | 3.17153 | 6401 ft | 277 kts | 224° |
| 2026-04-10 09:16 | 39.76384 | 3.15540 | 6045 ft | 275 kts | 224° |
| 2026-04-10 09:16 | 39.74985 | 3.13823 | 5707 ft | 274 kts | 224° |
| 2026-04-10 09:17 | 39.73609 | 3.12136 | 5377 ft | 272 kts | 224° |
| 2026-04-10 09:17 | 39.72234 | 3.10450 | 4941 ft | 270 kts | 223° |
| 2026-04-10 09:17 | 39.70925 | 3.08750 | 4487 ft | 265 kts | 230° |
| 2026-04-10 09:17 | 39.69870 | 3.06842 | 3969 ft | 264 kts | 239° |
| 2026-04-10 09:18 | 39.68986 | 3.04773 | 3671 ft | 260 kts | 241° |
| 2026-04-10 09:18 | 39.68095 | 3.02739 | 3429 ft | 254 kts | 239° |
| 2026-04-10 09:18 | 39.67195 | 3.00819 | 3201 ft | 249 kts | 238° |
| 2026-04-10 09:18 | 39.66287 | 2.98921 | 2965 ft | 245 kts | 238° |
| 2026-04-10 09:19 | 39.65417 | 2.97079 | 2901 ft | 233 kts | 239° |
| 2026-04-10 09:19 | 39.64605 | 2.95347 | 2943 ft | 215 kts | 239° |
| 2026-04-10 09:19 | 39.63857 | 2.93758 | 2979 ft | 201 kts | 238° |
| 2026-04-10 09:19 | 39.63139 | 2.92235 | 2955 ft | 193 kts | 238° |
| 2026-04-10 09:20 | 39.62441 | 2.90753 | 2629 ft | 195 kts | 239° |
| 2026-04-10 09:20 | 39.61740 | 2.89269 | 2363 ft | 193 kts | 238° |
| 2026-04-10 09:20 | 39.61042 | 2.87789 | 2101 ft | 189 kts | 238° |
| 2026-04-10 09:20 | 39.60384 | 2.86395 | 1854 ft | 175 kts | 238° |
| 2026-04-10 09:21 | 39.59768 | 2.85091 | 1617 ft | 164 kts | 238° |
| 2026-04-10 09:21 | 39.59184 | 2.83854 | 1459 ft | 161 kts | 238° |
| 2026-04-10 09:21 | 39.58613 | 2.82646 | 1180 ft | 156 kts | 239° |
| 2026-04-10 09:21 | 39.58049 | 2.81456 | 992 ft | 155 kts | 238° |
| 2026-04-10 09:22 | 39.57478 | 2.80247 | 794 ft | 156 kts | 239° |
| 2026-04-10 09:22 | 39.56917 | 2.79068 | 592 ft | 155 kts | 239° |
| 2026-04-10 09:22 | 39.56352 | 2.77874 | 384 ft | 154 kts | 239° |
| 2026-04-10 09:22 | 39.55784 | 2.76681 | 187 ft | 155 kts | 239° |
| 2026-04-10 09:23 | 39.55231 | 2.75506 | 53 ft | 139 kts | 238° |
| 2026-04-10 09:23 | 39.54858 | 2.74718 | 52 ft | 71 kts | 238° |
| 2026-04-10 09:23 | 39.54627 | 2.74227 | 51 ft | 42 kts | 240° |
| 2026-04-10 09:23 | 39.54565 | 2.74055 | 51 ft | 13 kts | 255° |
| 2026-04-10 09:24 | 39.54551 | 2.73936 | 51 ft | 12 kts | 265° |
| 2026-04-10 09:24 | 39.54549 | 2.73826 | 51 ft | 11 kts | 269° |
| 2026-04-10 09:24 | 39.54559 | 2.73746 | 51 ft | 8 kts | 320° |
| 2026-04-10 09:24 | 39.54607 | 2.73756 | 52 ft | 7 kts | 43° |
| 2026-04-10 09:25 | 39.54642 | 2.73816 | 52 ft | 11 kts | 59° |
| 2026-04-10 09:25 | 39.54693 | 2.73924 | 52 ft | 15 kts | 58° |
| 2026-04-10 09:25 | 39.54747 | 2.74041 | 52 ft | 15 kts | 59° |
| 2026-04-10 09:25 | 39.54806 | 2.74119 | 53 ft | 11 kts | 8° |
| 2026-04-10 09:26 | 39.54879 | 2.74082 | 53 ft | 12 kts | 329° |
| 2026-04-10 09:26 | 39.54977 | 2.74004 | 53 ft | 18 kts | 329° |
| 2026-04-10 09:26 | 39.55088 | 2.73916 | 54 ft | 18 kts | 328° |
| 2026-04-10 09:26 | 39.55172 | 2.73849 | 54 ft | 8 kts | 320° |
| 2026-04-10 09:27 | 39.55173 | 2.73792 | 54 ft | 5 kts | 250° |
| 2026-04-10 09:27 | 39.55174 | 2.73749 | 54 ft | 4 kts | 285° |
| 2026-04-10 09:27 | 39.55175 | 2.73690 | 54 ft | 7 kts | 249° |
| 2026-04-10 09:27 | 39.55143 | 2.73619 | 54 ft | 10 kts | 238° |
| 2026-04-10 09:28 | 39.55108 | 2.73546 | 54 ft | 8 kts | 235° |
| 2026-04-10 09:28 | 39.55072 | 2.73527 | 53 ft | 3 kts | 171° |
| 2026-04-10 09:28 | 39.55052 | 2.73534 | 53 ft | 1 kts | 167° |
| 2026-04-10 09:28 | 39.55051 | 2.73534 | 53 ft | 0 kts | 167° |